createdAt,value
2018-10-16T00:00:19.772Z,16.80
2018-10-16T00:02:48.546Z,16.80
2018-10-16T00:05:17.907Z,16.70
2018-10-16T00:07:46.757Z,16.70
2018-10-16T00:10:19.334Z,16.70
2018-10-16T00:12:48.920Z,16.80
2018-10-16T00:15:17.299Z,16.90
2018-10-16T00:17:45.598Z,16.90
2018-10-16T00:20:13.880Z,16.90
2018-10-16T00:22:42.208Z,16.80
2018-10-16T00:25:14.964Z,17.00
2018-10-16T00:27:43.250Z,16.90
2018-10-16T00:30:11.590Z,17.00
2018-10-16T00:32:40.510Z,16.80
2018-10-16T00:35:09.047Z,16.80
2018-10-16T00:37:37.580Z,16.80
2018-10-16T00:40:06.004Z,16.80
2018-10-16T00:42:34.287Z,16.80
2018-10-16T00:45:02.539Z,16.80
2018-10-16T00:47:30.835Z,16.70
2018-10-16T00:49:59.167Z,16.80
2018-10-16T00:52:27.496Z,16.80
2018-10-16T00:54:56.001Z,16.80
2018-10-16T00:57:24.299Z,16.80
2018-10-16T00:59:52.576Z,16.70
2018-10-16T01:02:20.887Z,16.70
2018-10-16T01:04:49.168Z,16.70
2018-10-16T01:07:17.475Z,16.80
2018-10-16T01:09:45.763Z,16.90
2018-10-16T01:12:14.084Z,17.00
2018-10-16T01:14:42.352Z,17.00
2018-10-16T01:17:10.687Z,16.90
2018-10-16T01:19:39.024Z,16.90
2018-10-16T01:22:07.283Z,17.00
2018-10-16T01:24:35.636Z,17.00
2018-10-16T01:27:04.035Z,17.10
2018-10-16T01:29:32.439Z,17.10
2018-10-16T01:32:00.857Z,17.00
2018-10-16T01:34:29.179Z,17.10
2018-10-16T01:36:57.469Z,17.10
2018-10-16T01:39:25.718Z,17.00
2018-10-16T01:41:54.047Z,17.00
2018-10-16T01:44:22.319Z,17.00
2018-10-16T01:46:50.604Z,17.00
2018-10-16T01:49:18.877Z,17.10
2018-10-16T01:51:47.151Z,17.10
2018-10-16T01:54:15.506Z,17.10
2018-10-16T01:56:43.775Z,17.20
2018-10-16T01:59:12.088Z,17.20
2018-10-16T02:01:40.417Z,17.40
2018-10-16T02:04:08.801Z,17.40
2018-10-16T02:06:37.254Z,17.50
2018-10-16T02:09:08.140Z,17.50
2018-10-16T02:11:36.614Z,17.60
2018-10-16T02:14:05.024Z,17.50
2018-10-16T02:16:33.311Z,17.50
2018-10-16T02:19:01.645Z,17.50
2018-10-16T02:21:29.939Z,17.50
2018-10-16T02:23:58.218Z,17.50
2018-10-16T02:26:26.457Z,17.50
2018-10-16T02:28:54.720Z,17.50
2018-10-16T02:31:23.401Z,17.50
2018-10-16T02:33:51.659Z,17.40
2018-10-16T02:36:19.943Z,17.30
2018-10-16T02:38:48.287Z,17.30
2018-10-16T02:41:16.650Z,17.20
2018-10-16T02:43:45.045Z,17.20
2018-10-16T02:46:13.447Z,17.10
2018-10-16T02:48:41.787Z,17.00
2018-10-16T02:51:10.080Z,16.90
2018-10-16T02:53:38.465Z,16.90
2018-10-16T02:56:06.881Z,16.80
2018-10-16T02:58:35.184Z,16.80
2018-10-16T03:01:03.519Z,16.80
2018-10-16T03:03:34.909Z,16.80
2018-10-16T03:06:03.331Z,16.70
2018-10-16T03:08:31.780Z,16.60
2018-10-16T03:11:00.058Z,16.60
2018-10-16T03:13:28.363Z,16.60
2018-10-16T03:15:56.678Z,16.50
2018-10-16T03:18:25.180Z,16.50
2018-10-16T03:20:53.728Z,16.60
2018-10-16T03:23:22.047Z,16.50
2018-10-16T03:25:50.369Z,16.50
2018-10-16T03:28:18.776Z,16.50
2018-10-16T03:30:47.160Z,16.40
2018-10-16T03:33:15.489Z,16.40
2018-10-16T03:35:43.835Z,16.40
2018-10-16T03:38:12.106Z,16.40
2018-10-16T03:40:40.458Z,16.40
2018-10-16T03:43:08.728Z,16.30
2018-10-16T03:45:36.993Z,16.30
2018-10-16T03:48:05.511Z,16.30
2018-10-16T03:50:33.803Z,16.30
2018-10-16T03:53:02.077Z,16.20
2018-10-16T03:55:30.475Z,16.10
2018-10-16T03:57:58.807Z,16.00
2018-10-16T04:00:27.121Z,16.00
2018-10-16T04:02:55.559Z,15.90
2018-10-16T04:05:24.153Z,15.80
2018-10-16T04:07:52.539Z,15.80
2018-10-16T04:10:20.848Z,15.70
2018-10-16T04:12:49.135Z,15.70
2018-10-16T04:15:17.463Z,15.60
2018-10-16T04:17:45.760Z,15.60
2018-10-16T04:20:14.140Z,15.50
2018-10-16T04:22:42.492Z,15.50
2018-10-16T04:25:10.872Z,15.40
2018-10-16T04:27:39.247Z,15.30
2018-10-16T04:30:08.038Z,15.30
2018-10-16T04:32:36.345Z,15.30
2018-10-16T04:35:10.151Z,15.20
2018-10-16T04:37:38.423Z,15.20
2018-10-16T04:40:06.956Z,15.10
2018-10-16T04:42:35.373Z,15.10
2018-10-16T04:45:03.752Z,15.10
2018-10-16T04:47:32.339Z,15.10
2018-10-16T04:50:00.655Z,15.10
2018-10-16T04:52:28.923Z,15.10
2018-10-16T04:54:57.285Z,15.20
2018-10-16T04:57:25.703Z,15.30
2018-10-16T04:59:54.000Z,15.30
2018-10-16T05:02:22.270Z,15.30
2018-10-16T05:04:50.581Z,15.30
2018-10-16T05:07:19.200Z,15.30
2018-10-16T05:09:47.464Z,15.30
2018-10-16T05:12:15.782Z,15.30
2018-10-16T05:14:44.076Z,15.40
2018-10-16T05:17:12.369Z,15.30
2018-10-16T05:19:41.015Z,15.30
2018-10-16T05:22:09.379Z,15.30
2018-10-16T05:24:37.735Z,15.30
2018-10-16T05:27:06.129Z,15.30
2018-10-16T05:29:34.507Z,15.30
2018-10-16T05:32:02.811Z,15.30
2018-10-16T05:34:31.083Z,15.30
2018-10-16T05:36:59.642Z,15.30
2018-10-16T05:39:27.981Z,15.30
2018-10-16T05:41:56.352Z,15.30
2018-10-16T05:44:24.638Z,15.30
2018-10-16T05:46:52.933Z,15.30
2018-10-16T05:49:21.219Z,15.30
2018-10-16T05:51:49.516Z,15.40
2018-10-16T05:54:18.150Z,15.40
2018-10-16T05:56:46.414Z,15.50
2018-10-16T05:59:14.908Z,15.40
2018-10-16T06:01:43.253Z,15.40
2018-10-16T06:04:11.597Z,15.40
2018-10-16T06:06:39.911Z,15.40
2018-10-16T06:09:08.323Z,15.40
2018-10-16T06:11:36.687Z,15.40
2018-10-16T06:14:04.981Z,15.20
2018-10-16T06:16:33.301Z,15.10
2018-10-16T06:19:01.980Z,15.10
2018-10-16T06:21:30.283Z,15.10
2018-10-16T06:23:58.559Z,15.00
2018-10-16T06:26:26.863Z,15.00
2018-10-16T06:28:55.139Z,15.00
2018-10-16T06:31:23.431Z,15.00
2018-10-16T06:33:51.776Z,14.90
2018-10-16T06:36:20.148Z,14.90
2018-10-16T06:38:48.464Z,14.90
2018-10-16T06:41:16.858Z,14.80
2018-10-16T06:43:45.137Z,14.70
2018-10-16T06:46:13.354Z,14.70
2018-10-16T06:48:42.007Z,14.60
2018-10-16T06:51:09.990Z,14.60
2018-10-16T06:53:38.271Z,14.60
2018-10-16T06:56:06.841Z,14.60
2018-10-16T06:58:35.159Z,14.70
2018-10-16T07:01:03.427Z,14.70
2018-10-16T07:03:31.764Z,14.80
2018-10-16T07:06:00.103Z,14.80
2018-10-16T07:08:28.459Z,14.90
2018-10-16T07:10:56.815Z,14.90
2018-10-16T07:13:25.730Z,15.00
2018-10-16T07:15:54.104Z,15.00
2018-10-16T07:18:22.398Z,15.10
2018-10-16T07:20:50.640Z,15.10
2018-10-16T07:23:19.055Z,15.10
2018-10-16T07:25:47.396Z,15.20
2018-10-16T07:28:15.664Z,15.20
2018-10-16T07:30:44.007Z,15.20
2018-10-16T07:33:12.301Z,15.30
2018-10-16T07:35:40.621Z,15.30
2018-10-16T07:38:09.010Z,15.30
2018-10-16T07:40:37.160Z,15.40
2018-10-16T07:43:05.714Z,15.50
2018-10-16T07:45:34.088Z,15.50
2018-10-16T07:48:02.413Z,15.50
2018-10-16T07:50:30.792Z,15.60
2018-10-16T07:52:59.102Z,15.60
2018-10-16T07:55:27.380Z,15.60
2018-10-16T07:57:55.651Z,15.60
2018-10-16T08:00:23.921Z,15.80
2018-10-16T08:02:52.219Z,15.80
2018-10-16T08:05:20.828Z,15.90
2018-10-16T08:07:49.141Z,15.80
2018-10-16T08:10:17.419Z,15.70
2018-10-16T08:12:45.805Z,15.70
2018-10-16T08:15:14.132Z,15.80
2018-10-16T08:17:42.422Z,15.90
2018-10-16T08:20:10.759Z,15.90
2018-10-16T08:22:39.317Z,16.00
2018-10-16T08:25:07.715Z,16.00
2018-10-16T08:27:36.279Z,16.20
2018-10-16T08:30:05.600Z,16.20
2018-10-16T08:32:33.835Z,16.30
2018-10-16T08:35:02.920Z,16.40
2018-10-16T08:38:42.796Z,16.50
2018-10-16T08:41:12.776Z,16.60
2018-10-16T08:43:52.706Z,16.80
2018-10-16T08:46:32.711Z,17.00
2018-10-16T08:49:12.263Z,17.10
2018-10-16T08:51:43.222Z,17.30
2018-10-16T08:54:11.534Z,17.30
2018-10-16T08:56:39.851Z,17.50
2018-10-16T08:59:08.115Z,17.70
2018-10-16T09:01:36.423Z,17.80
2018-10-16T09:04:04.874Z,18.00
2018-10-16T09:06:33.573Z,18.10
2018-10-16T09:09:02.307Z,18.20
2018-10-16T09:11:30.692Z,18.30
2018-10-16T09:13:59.016Z,18.40
2018-10-16T09:16:27.323Z,18.50
2018-10-16T09:18:55.620Z,18.70
2018-10-16T09:21:23.883Z,18.80
2018-10-16T09:23:52.227Z,18.90
2018-10-16T09:26:20.608Z,19.00
2018-10-16T09:28:48.920Z,19.10
2018-10-16T09:31:17.256Z,19.20
2018-10-16T09:33:45.575Z,19.30
2018-10-16T09:36:13.847Z,19.40
2018-10-16T09:38:42.175Z,19.50
2018-10-16T09:41:10.459Z,19.60
2018-10-16T09:43:38.744Z,19.70
2018-10-16T09:46:07.014Z,19.80
2018-10-16T09:48:35.307Z,19.80
2018-10-16T09:51:03.590Z,19.90
2018-10-16T09:56:06.581Z,20.00
2018-10-16T09:58:34.897Z,20.10
2018-10-16T10:01:08.456Z,20.20
2018-10-16T10:03:36.836Z,20.20
2018-10-16T10:06:05.136Z,20.40
2018-10-16T10:08:33.412Z,20.40
2018-10-16T10:11:01.741Z,20.40
2018-10-16T10:13:30.111Z,20.50
2018-10-16T10:15:58.463Z,20.70
2018-10-16T10:18:26.896Z,20.70
2018-10-16T10:20:55.403Z,20.80
2018-10-16T10:23:23.926Z,20.80
2018-10-16T10:25:52.241Z,20.90
2018-10-16T10:28:20.556Z,20.90
2018-10-16T10:30:48.868Z,21.00
2018-10-16T10:33:17.175Z,20.90
2018-10-16T10:35:45.457Z,21.00
2018-10-16T10:38:13.738Z,20.90
2018-10-16T10:40:42.039Z,21.00
2018-10-16T10:43:10.321Z,21.10
2018-10-16T10:45:38.588Z,21.20
2018-10-16T10:48:13.267Z,21.30
2018-10-16T10:50:41.843Z,21.30
2018-10-16T10:53:09.872Z,21.30
2018-10-16T10:55:38.345Z,21.30
2018-10-16T10:58:06.703Z,21.30
2018-10-16T11:00:35.081Z,21.40
2018-10-16T11:03:03.503Z,21.40
2018-10-16T11:05:31.874Z,21.50
2018-10-16T11:08:00.195Z,21.60
2018-10-16T11:10:28.539Z,21.60
2018-10-16T11:12:56.824Z,21.70
2018-10-16T11:15:25.126Z,21.70
2018-10-16T11:17:53.423Z,21.70
2018-10-16T11:20:21.698Z,21.60
2018-10-16T11:22:49.967Z,21.70
2018-10-16T11:25:18.315Z,21.70
2018-10-16T11:27:46.563Z,21.80
2018-10-16T11:30:15.657Z,22.00
2018-10-16T11:32:44.210Z,22.00
2018-10-16T11:35:13.731Z,22.10
2018-10-16T11:37:42.182Z,22.10
2018-10-16T11:40:10.997Z,22.10
2018-10-16T11:42:39.649Z,22.20
2018-10-16T11:45:08.027Z,22.30
2018-10-16T11:47:36.935Z,22.20
2018-10-16T11:50:06.176Z,22.20
2018-10-16T11:52:34.365Z,22.30
2018-10-16T11:55:02.870Z,22.50
2018-10-16T11:57:31.195Z,22.60
2018-10-16T11:59:59.491Z,22.70
2018-10-16T12:02:27.813Z,22.50
2018-10-16T12:04:56.107Z,22.30
2018-10-16T12:07:24.381Z,22.30
2018-10-16T12:09:52.645Z,22.40
2018-10-16T12:12:21.072Z,22.60
2018-10-16T12:14:49.399Z,22.70
2018-10-16T12:17:23.332Z,22.80
2018-10-16T12:19:55.111Z,22.80
2018-10-16T12:22:23.332Z,22.90
2018-10-16T12:24:51.653Z,22.90
2018-10-16T12:27:20.012Z,23.10
2018-10-16T12:29:48.365Z,23.10
2018-10-16T12:32:16.721Z,23.10
2018-10-16T12:34:44.978Z,23.20
2018-10-16T12:37:13.517Z,23.20
2018-10-16T12:39:41.782Z,23.20
2018-10-16T12:42:10.031Z,23.40
2018-10-16T12:44:38.272Z,23.40
2018-10-16T12:47:06.713Z,23.50
2018-10-16T12:49:35.044Z,23.40
2018-10-16T12:52:03.524Z,23.30
2018-10-16T12:54:31.875Z,23.30
2018-10-16T12:57:00.338Z,23.40
2018-10-16T12:59:28.515Z,23.40
2018-10-16T13:01:56.805Z,23.40
2018-10-16T13:04:25.283Z,23.50
2018-10-16T13:06:53.606Z,23.50
2018-10-16T13:09:21.947Z,23.50
2018-10-16T13:11:50.270Z,23.60
2018-10-16T13:14:18.572Z,23.70
2018-10-16T13:16:46.892Z,23.50
2018-10-16T13:19:15.185Z,23.60
2018-10-16T13:21:43.443Z,23.70
2018-10-16T13:24:11.782Z,23.70
2018-10-16T13:26:40.085Z,23.80
2018-10-16T13:29:08.447Z,23.80
2018-10-16T13:31:36.651Z,23.80
2018-10-16T13:34:05.392Z,23.80
2018-10-16T13:36:33.684Z,23.80
2018-10-16T13:39:01.989Z,24.00
2018-10-16T13:41:30.339Z,24.00
2018-10-16T13:43:58.694Z,23.90
2018-10-16T13:46:27.025Z,23.80
2018-10-16T13:48:55.303Z,23.80
2018-10-16T13:51:23.620Z,23.80
2018-10-16T13:53:51.895Z,23.90
2018-10-16T13:56:20.174Z,23.90
2018-10-16T13:58:48.467Z,24.00
2018-10-16T14:01:16.783Z,24.00
2018-10-16T14:03:45.116Z,24.10
2018-10-16T14:06:13.548Z,24.10
2018-10-16T14:08:41.980Z,24.20
2018-10-16T14:11:10.362Z,24.00
2018-10-16T14:13:38.613Z,23.90
2018-10-16T14:16:07.017Z,24.00
2018-10-16T14:18:35.231Z,23.90
2018-10-16T14:21:03.550Z,24.00
2018-10-16T14:23:31.880Z,24.00
2018-10-16T14:26:00.176Z,24.00
2018-10-16T14:28:28.460Z,23.80
2018-10-16T14:30:56.828Z,23.90
2018-10-16T14:33:25.099Z,24.00
2018-10-16T14:35:53.347Z,24.10
2018-10-16T14:38:21.598Z,24.10
2018-10-16T14:40:49.926Z,24.00
2018-10-16T14:43:18.215Z,23.80
2018-10-16T14:45:46.548Z,23.80
2018-10-16T14:48:14.833Z,23.80
2018-10-16T14:50:43.176Z,23.80
2018-10-16T14:53:11.709Z,23.90
2018-10-16T14:55:39.992Z,23.90
2018-10-16T14:58:09.260Z,23.90
2018-10-16T15:00:37.526Z,23.90
2018-10-16T15:03:05.964Z,24.00
2018-10-16T15:05:34.251Z,23.80
2018-10-16T15:08:02.657Z,23.90
2018-10-16T15:10:30.933Z,24.00
2018-10-16T15:12:59.239Z,23.90
2018-10-16T15:15:27.473Z,23.90
2018-10-16T15:17:55.833Z,24.00
2018-10-16T15:20:24.107Z,23.90
2018-10-16T15:22:52.396Z,23.80
2018-10-16T15:25:20.683Z,23.60
2018-10-16T15:27:49.043Z,23.40
2018-10-16T15:30:17.308Z,23.20
2018-10-16T15:32:45.715Z,23.00
2018-10-16T15:35:14.008Z,22.80
2018-10-16T15:37:42.287Z,22.80
2018-10-16T15:40:11.559Z,22.70
2018-10-16T15:42:40.360Z,22.60
2018-10-16T15:45:10.075Z,22.60
2018-10-16T15:47:38.659Z,22.60
2018-10-16T15:50:07.375Z,22.60
2018-10-16T15:52:35.681Z,22.60
2018-10-16T15:55:03.955Z,22.60
2018-10-16T15:57:32.249Z,22.50
2018-10-16T16:00:00.565Z,22.40
2018-10-16T16:02:28.857Z,22.30
2018-10-16T16:04:57.128Z,22.20
2018-10-16T16:07:25.403Z,22.10
2018-10-16T16:09:53.793Z,21.90
2018-10-16T16:12:22.073Z,21.80
2018-10-16T16:14:50.339Z,21.70
2018-10-16T16:17:18.652Z,21.60
2018-10-16T16:19:46.925Z,21.40
2018-10-16T16:22:15.222Z,21.40
2018-10-16T16:24:43.492Z,21.20
2018-10-16T16:27:11.751Z,21.20
2018-10-16T16:29:40.002Z,21.00
2018-10-16T16:32:08.443Z,21.00
2018-10-16T16:34:36.789Z,20.90
2018-10-16T16:37:05.202Z,20.80
2018-10-16T16:39:33.501Z,20.70
2018-10-16T16:42:01.866Z,20.70
2018-10-16T16:44:30.194Z,20.60
2018-10-16T16:46:58.578Z,20.50
2018-10-16T16:49:27.202Z,20.40
2018-10-16T16:51:55.513Z,20.30
2018-10-16T16:54:24.702Z,20.20
2018-10-16T16:56:59.551Z,20.10
2018-10-16T16:59:28.084Z,20.10
2018-10-16T17:01:56.391Z,20.00
2018-10-16T17:04:24.723Z,19.90
2018-10-16T17:06:53.031Z,19.80
2018-10-16T17:09:21.287Z,19.80
2018-10-16T17:11:56.358Z,19.70
2018-10-16T17:14:24.569Z,19.60
2018-10-16T17:16:52.803Z,19.60
2018-10-16T17:19:21.048Z,19.60
2018-10-16T17:21:49.363Z,19.50
2018-10-16T17:24:17.628Z,19.50
2018-10-16T17:26:46.015Z,19.50
2018-10-16T17:29:14.367Z,19.40
2018-10-16T17:31:42.675Z,19.40
2018-10-16T17:34:11.003Z,19.30
2018-10-16T17:36:39.351Z,19.30
2018-10-16T17:39:09.444Z,19.20
2018-10-16T17:41:37.674Z,19.20
2018-10-16T17:44:06.393Z,19.10
2018-10-16T17:46:34.964Z,19.10
2018-10-16T17:49:03.559Z,19.00
2018-10-16T17:51:31.935Z,18.90
2018-10-16T17:54:00.190Z,18.90
2018-10-16T17:56:28.480Z,18.90
2018-10-16T17:58:56.726Z,18.80
2018-10-16T18:01:25.022Z,18.80
2018-10-16T18:03:53.351Z,18.70
2018-10-16T18:06:21.603Z,18.60
2018-10-16T18:08:49.923Z,18.60
2018-10-16T18:11:18.232Z,18.60
2018-10-16T18:13:46.495Z,18.50
2018-10-16T18:16:14.949Z,18.50
2018-10-16T18:18:43.323Z,18.50
2018-10-16T18:21:11.721Z,18.40
2018-10-16T18:23:40.001Z,18.40
2018-10-16T18:26:08.172Z,18.40
2018-10-16T18:28:36.416Z,18.30
2018-10-16T18:31:05.475Z,18.30
2018-10-16T18:33:33.769Z,18.30
2018-10-16T18:36:02.078Z,18.20
2018-10-16T18:38:30.449Z,18.20
2018-10-16T18:40:58.724Z,18.10
2018-10-16T18:43:27.001Z,18.10
2018-10-16T18:45:55.268Z,18.00
2018-10-16T18:48:23.544Z,18.00
2018-10-16T18:50:51.891Z,17.90
2018-10-16T18:53:20.267Z,17.90
2018-10-16T18:55:48.576Z,17.80
2018-10-16T18:58:16.880Z,17.80
2018-10-16T19:00:45.188Z,17.70
2018-10-16T19:03:13.550Z,17.70
2018-10-16T19:05:41.746Z,17.60
2018-10-16T19:08:10.059Z,17.60
2018-10-16T19:10:38.327Z,17.60
2018-10-16T19:13:06.659Z,17.60
2018-10-16T19:15:34.946Z,17.50
2018-10-16T19:18:03.220Z,17.50
2018-10-16T19:20:31.465Z,17.50
2018-10-16T19:22:59.787Z,17.50
2018-10-16T19:25:28.127Z,17.40
2018-10-16T19:27:56.445Z,17.50
2018-10-16T19:30:24.802Z,17.40
2018-10-16T19:32:53.169Z,17.40
2018-10-16T19:35:22.024Z,17.40
2018-10-16T19:37:50.290Z,17.30
2018-10-16T19:40:18.553Z,17.30
2018-10-16T19:42:46.876Z,17.20
2018-10-16T19:45:15.189Z,17.10
2018-10-16T19:47:43.385Z,17.10
2018-10-16T19:50:11.923Z,17.10
2018-10-16T19:52:40.411Z,17.00
2018-10-16T19:55:08.701Z,16.90
2018-10-16T19:57:37.072Z,16.90
2018-10-16T20:00:06.736Z,16.80
2018-10-16T20:02:34.933Z,16.80
2018-10-16T20:05:03.279Z,16.80
2018-10-16T20:07:31.571Z,16.80
2018-10-16T20:09:59.898Z,16.80
2018-10-16T20:12:28.212Z,16.80
2018-10-16T20:14:56.471Z,16.80
2018-10-16T20:17:24.735Z,16.80
2018-10-16T20:19:53.069Z,16.80
2018-10-16T20:22:21.298Z,16.70
2018-10-16T20:24:49.581Z,16.70
2018-10-16T20:27:17.854Z,16.70
2018-10-16T20:29:46.145Z,16.70
2018-10-16T20:32:14.411Z,16.70
2018-10-16T20:34:42.710Z,16.70
2018-10-16T20:37:11.013Z,16.70
2018-10-16T20:39:39.297Z,16.70
2018-10-16T20:42:07.669Z,16.70
2018-10-16T20:44:35.962Z,16.70
2018-10-16T20:47:04.400Z,16.70
2018-10-16T20:49:32.658Z,16.60
2018-10-16T20:52:00.948Z,16.60
2018-10-16T20:54:29.231Z,16.60
2018-10-16T20:56:57.488Z,16.60
2018-10-16T20:59:25.788Z,16.50
2018-10-16T21:01:54.197Z,16.50
2018-10-16T21:04:22.488Z,16.50
2018-10-16T21:06:50.941Z,16.40
2018-10-16T21:09:19.051Z,16.40
2018-10-16T21:11:47.319Z,16.40
2018-10-16T21:14:15.599Z,16.40
2018-10-16T21:16:43.894Z,16.40
2018-10-16T21:19:12.382Z,16.30
2018-10-16T21:21:40.646Z,16.30
2018-10-16T21:24:08.921Z,16.30
2018-10-16T21:26:37.263Z,16.20
2018-10-16T21:29:05.613Z,16.30
2018-10-16T21:31:33.895Z,16.30
2018-10-16T21:34:02.139Z,16.20
2018-10-16T21:36:30.425Z,16.20
2018-10-16T21:38:58.705Z,16.20
2018-10-16T21:41:26.955Z,16.10
2018-10-16T21:43:55.221Z,16.10
2018-10-16T21:46:23.543Z,16.10
2018-10-16T21:48:51.807Z,16.00
2018-10-16T21:51:20.083Z,16.00
2018-10-16T21:53:48.355Z,16.00
2018-10-16T21:56:16.702Z,16.00
2018-10-16T21:58:44.971Z,15.90
2018-10-16T22:01:13.328Z,15.90
2018-10-16T22:03:41.519Z,15.90
2018-10-16T22:06:09.786Z,15.90
2018-10-16T22:08:38.071Z,15.80
2018-10-16T22:11:06.507Z,15.80
2018-10-16T22:13:34.791Z,15.80
2018-10-16T22:16:03.082Z,15.70
2018-10-16T22:18:31.341Z,15.70
2018-10-16T22:20:59.593Z,15.60
2018-10-16T22:23:27.867Z,15.60
2018-10-16T22:25:56.155Z,15.60
2018-10-16T22:28:24.523Z,15.60
2018-10-16T22:30:52.866Z,15.50
2018-10-16T22:33:21.102Z,15.60
2018-10-16T22:35:49.447Z,15.50
2018-10-16T22:38:17.700Z,15.50
2018-10-16T22:40:46.045Z,15.40
2018-10-16T22:43:14.318Z,15.40
2018-10-16T22:45:42.567Z,15.30
2018-10-16T22:48:10.867Z,15.30
2018-10-16T22:50:39.130Z,15.30
2018-10-16T22:53:07.516Z,15.30
2018-10-16T22:55:35.741Z,15.30
2018-10-16T22:58:04.014Z,15.30
2018-10-16T23:00:32.286Z,15.20
2018-10-16T23:03:00.651Z,15.20
2018-10-16T23:05:28.996Z,15.20
2018-10-16T23:07:57.339Z,15.20
2018-10-16T23:10:25.602Z,15.10
2018-10-16T23:13:00.680Z,15.10
2018-10-16T23:15:28.988Z,15.10
2018-10-16T23:17:57.685Z,15.20
2018-10-16T23:20:25.984Z,15.20
2018-10-16T23:22:54.332Z,15.20
2018-10-16T23:25:22.666Z,15.10
2018-10-16T23:27:50.941Z,15.10
2018-10-16T23:30:19.201Z,15.00
2018-10-16T23:32:47.834Z,14.90
2018-10-16T23:35:16.326Z,14.90
2018-10-16T23:37:44.538Z,14.80
2018-10-16T23:40:12.828Z,14.80
2018-10-16T23:42:41.347Z,14.80
2018-10-16T23:45:09.691Z,14.80
2018-10-16T23:47:37.930Z,14.80
2018-10-16T23:50:06.308Z,14.80
2018-10-16T23:52:34.674Z,14.70
2018-10-16T23:55:03.014Z,14.60
2018-10-16T23:57:31.166Z,14.60
2018-10-16T23:59:59.417Z,14.60
